Current Weather

Plymouth Municipal Airport

Plymouth Municipal Airport, Massachusetts (KPYM)

Report from: Sunday, May 22, 2022 3:52 AM EDT
Current time: Sunday, May 22, 2022 4:24 AM EDT

Nearby weather
Weather history
Weather forecast

Temperature17.2°C (63.0°F)
Dew point15.6°C (60.1°F)
Winds 3 kts (1.5 m/s, 3.5 mph) South-Southwest (210°)
Visibility10 mi. (16.1 km)
Clouds Sky clear
Altimeter30.00 in.Hg (1016 mB)
Relative humidity90 %
Density altitude413 ft. (126 m)
Sea-level pressure101.6 kPa (1016 mB, 29.99 in.Hg)
Remarks Fully automated report
Automated weather observing station with precipitation discriminator
Flight conditions Visual Meteorological Conditions
Raw dataKPYM 220752Z AUTO 21003KT 10SM CLR 17/16 A3000 RMK AO2 SLP157 T01720156
An error has occurred. This application may no longer respond until reloaded. Reload 🗙